createdAt,value
2022-10-22T00:01:15.500Z,42.23
2022-10-22T00:03:43.636Z,38.47
2022-10-22T00:06:11.763Z,39.00
2022-10-22T00:08:41.361Z,36.97
2022-10-22T00:11:11.229Z,43.30
2022-10-22T00:13:39.559Z,34.40
2022-10-22T00:16:08.543Z,41.90
2022-10-22T00:18:36.781Z,35.87
2022-10-22T00:21:05.924Z,42.73
2022-10-22T00:23:34.091Z,41.70
2022-10-22T00:26:03.565Z,38.03
2022-10-22T00:28:31.705Z,33.60
2022-10-22T00:31:01.721Z,60.03
2022-10-22T00:33:31.119Z,52.27
2022-10-22T00:36:00.088Z,51.60
2022-10-22T00:38:29.320Z,38.90
2022-10-22T00:40:57.494Z,54.97
2022-10-22T00:43:28.636Z,66.63
2022-10-22T00:45:56.765Z,39.90
2022-10-22T00:48:27.971Z,48.03
2022-10-22T00:51:00.559Z,75.03
2022-10-22T00:53:32.433Z,50.30
2022-10-22T00:56:01.055Z,62.50
2022-10-22T00:58:33.873Z,64.30
2022-10-22T01:01:03.074Z,61.10
2022-10-22T01:03:32.525Z,65.67
2022-10-22T01:06:04.365Z,67.37
2022-10-22T01:08:42.401Z,63.57
2022-10-22T01:11:22.620Z,88.07
2022-10-22T01:13:58.888Z,82.00
2022-10-22T01:16:35.827Z,52.20
2022-10-22T01:19:21.904Z,56.00
2022-10-22T01:21:57.277Z,74.17
2022-10-22T01:24:36.613Z,63.00
2022-10-22T01:27:16.317Z,107.83
2022-10-22T01:29:50.634Z,155.83
2022-10-22T01:32:22.401Z,105.53
2022-10-22T01:34:55.620Z,76.83
2022-10-22T01:37:27.750Z,97.43
2022-10-22T01:39:58.827Z,130.23
2022-10-22T01:42:27.055Z,150.43
2022-10-22T01:44:56.525Z,76.97
2022-10-22T01:47:40.406Z,157.03
2022-10-22T01:50:29.588Z,155.27
2022-10-22T01:53:07.992Z,65.73
2022-10-22T01:55:44.602Z,94.53
2022-10-22T01:58:23.993Z,92.80
2022-10-22T02:01:01.609Z,73.47
2022-10-22T02:03:39.687Z,62.67
2022-10-22T02:06:15.375Z,85.00
2022-10-22T02:08:44.415Z,63.20
2022-10-22T02:11:14.488Z,79.03
2022-10-22T02:13:45.517Z,53.07
2022-10-22T02:16:19.256Z,52.97
2022-10-22T02:18:50.355Z,53.23
2022-10-22T02:21:18.891Z,47.17
2022-10-22T02:23:47.629Z,59.57
2022-10-22T02:26:23.061Z,60.40
2022-10-22T02:28:59.426Z,64.97
2022-10-22T02:31:32.252Z,100.40
2022-10-22T02:34:05.698Z,101.20
2022-10-22T02:36:34.058Z,46.77
2022-10-22T02:39:03.222Z,148.83
2022-10-22T02:41:32.517Z,53.27
2022-10-22T02:44:02.707Z,112.90
2022-10-22T02:46:32.198Z,64.73
2022-10-22T02:49:00.453Z,67.83
2022-10-22T02:51:28.935Z,50.40
2022-10-22T02:53:57.046Z,58.13
2022-10-22T02:56:25.178Z,48.03
2022-10-22T02:58:53.365Z,51.97
2022-10-22T03:01:21.607Z,41.37
2022-10-22T03:03:51.206Z,57.60
2022-10-22T03:06:19.403Z,36.27
2022-10-22T03:08:47.651Z,50.20
2022-10-22T03:11:16.021Z,47.63
2022-10-22T03:13:44.144Z,60.20
2022-10-22T03:16:12.275Z,48.23
2022-10-22T03:18:40.436Z,56.90
2022-10-22T03:21:14.099Z,56.03
2022-10-22T03:23:44.614Z,50.07
2022-10-22T03:26:15.362Z,46.10
2022-10-22T03:28:44.086Z,59.57
2022-10-22T03:31:12.208Z,42.77
2022-10-22T03:33:40.373Z,40.10
2022-10-22T03:36:10.684Z,42.03
2022-10-22T03:38:40.994Z,67.57
2022-10-22T03:41:09.235Z,46.70
2022-10-22T03:43:39.180Z,35.77
2022-10-22T03:46:07.650Z,65.00
2022-10-22T03:48:35.780Z,71.97
2022-10-22T03:51:03.932Z,45.53
2022-10-22T03:53:33.666Z,44.67
2022-10-22T03:56:02.277Z,44.60
2022-10-22T03:58:30.433Z,39.93
2022-10-22T04:00:58.703Z,42.13
2022-10-22T04:03:27.254Z,48.00
2022-10-22T04:05:55.386Z,50.93
2022-10-22T04:08:23.838Z,45.67
2022-10-22T04:10:53.556Z,42.90
2022-10-22T04:13:21.734Z,47.97
2022-10-22T04:15:51.873Z,68.27
2022-10-22T04:18:20.270Z,51.97
2022-10-22T04:20:48.802Z,49.17
2022-10-22T04:23:16.917Z,50.77
2022-10-22T04:25:45.027Z,44.47
2022-10-22T04:28:14.534Z,59.67
2022-10-22T04:30:42.668Z,43.50
2022-10-22T04:33:10.784Z,45.23
2022-10-22T04:35:39.884Z,41.20
2022-10-22T04:38:08.025Z,48.87
2022-10-22T04:40:36.148Z,82.97
2022-10-22T04:43:04.592Z,55.67
2022-10-22T04:45:35.164Z,71.13
2022-10-22T04:48:03.288Z,73.87
2022-10-22T04:50:31.414Z,57.93
2022-10-22T04:52:59.708Z,54.07
2022-10-22T04:55:27.887Z,48.40
2022-10-22T04:57:56.215Z,71.70
2022-10-22T05:00:24.334Z,42.23
2022-10-22T05:02:54.157Z,64.27
2022-10-22T05:05:22.314Z,58.67
2022-10-22T05:07:52.123Z,41.27
2022-10-22T05:10:20.586Z,65.17
2022-10-22T05:12:49.045Z,57.77
2022-10-22T05:15:17.430Z,79.07
2022-10-22T05:17:45.564Z,62.70
2022-10-22T05:20:15.045Z,67.53
2022-10-22T05:22:43.166Z,63.73
2022-10-22T05:25:12.182Z,66.43
2022-10-22T05:27:40.590Z,60.97
2022-10-22T05:30:09.411Z,67.77
2022-10-22T05:32:37.853Z,47.13
2022-10-22T05:35:06.679Z,48.73
2022-10-22T05:37:36.136Z,56.97
2022-10-22T05:40:19.024Z,54.03
2022-10-22T05:42:53.040Z,44.27
2022-10-22T05:45:21.165Z,47.83
2022-10-22T05:47:49.521Z,50.23
2022-10-22T05:50:17.659Z,39.03
2022-10-22T05:52:47.112Z,37.73
2022-10-22T05:55:15.374Z,56.40
2022-10-22T05:57:43.496Z,44.83
2022-10-22T06:00:15.700Z,40.00
2022-10-22T06:02:44.950Z,44.20
2022-10-22T06:05:13.191Z,40.63
2022-10-22T06:07:41.336Z,38.13
2022-10-22T06:10:16.072Z,49.57
2022-10-22T06:12:44.400Z,44.27
2022-10-22T06:15:14.278Z,34.77
2022-10-22T06:17:42.727Z,37.70
2022-10-22T06:20:12.357Z,35.20
2022-10-22T06:22:40.791Z,47.83
2022-10-22T06:25:12.478Z,40.13
2022-10-22T06:27:40.647Z,33.80
2022-10-22T06:30:10.240Z,35.90
2022-10-22T06:32:38.607Z,38.10
2022-10-22T06:35:07.888Z,34.13
2022-10-22T06:37:36.006Z,34.07
2022-10-22T06:40:04.360Z,36.47
2022-10-22T06:42:33.833Z,27.73
2022-10-22T06:47:34.932Z,37.40
2022-10-22T06:50:03.463Z,35.97
2022-10-22T06:52:31.614Z,35.30
2022-10-22T06:54:59.793Z,36.10
2022-10-22T06:57:27.928Z,33.53
2022-10-22T06:59:57.387Z,31.77
2022-10-22T07:02:25.512Z,34.73
2022-10-22T07:04:53.654Z,38.03
2022-10-22T07:07:22.067Z,28.63
2022-10-22T07:09:51.423Z,34.33
2022-10-22T07:12:19.793Z,34.53
2022-10-22T07:14:48.227Z,33.70
2022-10-22T07:17:18.151Z,36.53
2022-10-22T07:19:49.636Z,38.80
2022-10-22T07:22:19.595Z,31.90
2022-10-22T07:24:47.754Z,29.97
2022-10-22T07:27:16.063Z,25.50
2022-10-22T07:29:44.227Z,35.30
2022-10-22T07:32:12.969Z,28.83
2022-10-22T07:34:43.908Z,30.77
2022-10-22T07:37:12.225Z,26.53
2022-10-22T07:39:40.384Z,26.23
2022-10-22T07:42:08.583Z,25.37
2022-10-22T07:44:36.781Z,26.70
2022-10-22T07:47:05.588Z,25.60
2022-10-22T07:49:33.821Z,27.53
2022-10-22T07:52:03.565Z,26.93
2022-10-22T07:54:31.687Z,24.10
2022-10-22T07:56:59.806Z,23.43
2022-10-22T07:59:27.972Z,21.57
2022-10-22T08:01:56.105Z,27.03
2022-10-22T08:04:24.268Z,27.80
2022-10-22T08:06:55.122Z,24.83
2022-10-22T08:09:25.363Z,21.37
2022-10-22T08:11:54.421Z,28.80
2022-10-22T08:14:25.639Z,22.53
2022-10-22T08:16:53.853Z,24.03
2022-10-22T08:19:22.228Z,22.73
2022-10-22T08:21:50.376Z,20.70
2022-10-22T08:24:18.527Z,21.60
2022-10-22T08:26:48.042Z,18.83
2022-10-22T08:29:16.643Z,23.43
2022-10-22T08:31:44.788Z,17.37
2022-10-22T08:34:13.235Z,21.57
2022-10-22T08:36:41.581Z,20.50
2022-10-22T08:39:09.818Z,21.57
2022-10-22T08:41:50.940Z,20.33
2022-10-22T08:44:44.651Z,21.10
2022-10-22T08:47:32.358Z,19.20
2022-10-22T08:50:01.380Z,19.90
2022-10-22T08:52:29.844Z,17.17
2022-10-22T08:54:59.752Z,21.30
2022-10-22T08:57:52.441Z,24.87
2022-10-22T09:00:25.055Z,19.27
2022-10-22T09:03:13.173Z,21.03
2022-10-22T09:05:49.375Z,21.50
2022-10-22T09:08:20.409Z,22.20
2022-10-22T09:10:52.044Z,20.27
2022-10-22T09:13:24.340Z,20.63
2022-10-22T09:15:56.611Z,20.00
2022-10-22T09:18:36.178Z,16.90
2022-10-22T09:21:14.616Z,17.00
2022-10-22T09:23:55.155Z,18.00
2022-10-22T09:26:23.367Z,16.83
2022-10-22T09:28:53.130Z,19.23
2022-10-22T09:31:21.271Z,18.10
2022-10-22T09:33:51.915Z,18.07
2022-10-22T09:36:23.743Z,18.00
2022-10-22T09:38:54.405Z,18.37
2022-10-22T09:41:26.349Z,21.30
2022-10-22T09:43:55.838Z,18.10
2022-10-22T09:46:28.998Z,15.80
2022-10-22T09:49:04.800Z,18.20
2022-10-22T09:51:47.275Z,16.90
2022-10-22T09:54:18.825Z,17.43
2022-10-22T09:56:56.809Z,17.10
2022-10-22T09:59:31.933Z,19.90
2022-10-22T10:02:13.775Z,18.90
2022-10-22T10:04:50.676Z,15.80
2022-10-22T10:07:21.300Z,21.67
2022-10-22T10:09:51.464Z,17.37
2022-10-22T10:12:32.513Z,16.90
2022-10-22T10:15:12.739Z,17.20
2022-10-22T10:17:49.290Z,17.47
2022-10-22T10:20:28.858Z,15.37
2022-10-22T10:23:04.573Z,19.87
2022-10-22T10:25:42.690Z,17.30
2022-10-22T10:28:21.452Z,16.77
2022-10-22T10:30:58.989Z,17.67
2022-10-22T10:33:36.174Z,15.73
2022-10-22T10:36:12.430Z,20.40
2022-10-22T10:38:52.334Z,16.30
2022-10-22T10:41:29.688Z,21.30
2022-10-22T10:44:27.854Z,21.07
2022-10-22T10:47:05.211Z,18.53
2022-10-22T10:49:36.239Z,19.03
2022-10-22T10:52:18.862Z,19.50
2022-10-22T10:55:01.629Z,18.70
2022-10-22T10:57:40.772Z,19.67
2022-10-22T11:00:12.775Z,18.27
2022-10-22T11:03:03.572Z,16.70
2022-10-22T11:05:43.025Z,17.87
2022-10-22T11:08:16.235Z,18.07
2022-10-22T11:10:48.123Z,17.50
2022-10-22T11:13:25.435Z,17.17
2022-10-22T11:15:59.673Z,16.17
2022-10-22T11:18:33.861Z,16.30
2022-10-22T11:21:11.109Z,16.70
2022-10-22T11:23:45.108Z,16.40
2022-10-22T11:26:25.032Z,17.37
2022-10-22T11:28:54.753Z,15.20
2022-10-22T11:31:25.357Z,21.90
2022-10-22T11:34:09.927Z,17.63
2022-10-22T11:36:51.332Z,20.10
2022-10-22T11:39:32.966Z,16.90
2022-10-22T11:42:04.869Z,16.33
2022-10-22T11:44:46.225Z,15.97
2022-10-22T11:47:19.561Z,16.13
2022-10-22T11:49:58.931Z,15.07
2022-10-22T11:52:39.560Z,21.07
2022-10-22T11:55:33.988Z,24.30
2022-10-22T11:58:04.004Z,16.93
2022-10-22T12:00:41.122Z,16.90
2022-10-22T12:03:20.121Z,15.60
2022-10-22T12:06:11.665Z,20.57
2022-10-22T12:08:45.281Z,13.70
2022-10-22T12:11:17.806Z,18.33
2022-10-22T12:13:59.438Z,19.13
2022-10-22T12:16:37.649Z,17.90
2022-10-22T12:19:25.530Z,18.57
2022-10-22T12:21:58.464Z,18.20
2022-10-22T12:24:31.330Z,20.13
2022-10-22T12:26:59.480Z,18.13
2022-10-22T12:29:28.590Z,25.47
2022-10-22T12:31:57.679Z,23.47
2022-10-22T12:34:26.408Z,23.13
2022-10-22T12:36:56.421Z,18.47
2022-10-22T12:39:28.289Z,22.90
2022-10-22T12:41:56.743Z,24.03
2022-10-22T12:44:24.972Z,22.90
2022-10-22T12:46:56.102Z,20.30
2022-10-22T12:49:37.345Z,22.00
2022-10-22T12:52:12.071Z,22.47
2022-10-22T12:54:42.336Z,21.80
2022-10-22T12:57:13.924Z,24.07
2022-10-22T12:59:48.815Z,15.73
2022-10-22T13:02:24.427Z,22.43
2022-10-22T13:05:17.426Z,24.93
2022-10-22T13:07:50.724Z,18.43
2022-10-22T13:10:26.286Z,19.33
2022-10-22T13:12:57.511Z,14.93
2022-10-22T13:15:40.195Z,14.67
2022-10-22T13:18:17.936Z,16.10
2022-10-22T13:20:55.229Z,15.10
2022-10-22T13:23:27.204Z,23.77
2022-10-22T13:26:01.342Z,18.50
2022-10-22T13:28:31.567Z,21.00
2022-10-22T13:31:01.549Z,15.73
2022-10-22T13:33:34.554Z,15.27
2022-10-22T13:36:03.409Z,14.63
2022-10-22T13:38:33.440Z,15.37
2022-10-22T13:41:03.220Z,16.97
2022-10-22T13:43:31.645Z,19.97
2022-10-22T13:46:00.986Z,18.20
2022-10-22T13:48:31.421Z,21.53
2022-10-22T13:50:59.722Z,15.40
2022-10-22T13:53:29.467Z,19.07
2022-10-22T13:55:59.236Z,15.60
2022-10-22T13:58:27.503Z,15.30
2022-10-22T14:00:58.156Z,16.07
2022-10-22T14:03:30.104Z,14.33
2022-10-22T14:05:58.639Z,21.30
2022-10-22T14:08:27.958Z,17.90
2022-10-22T14:10:57.002Z,16.77
2022-10-22T14:13:30.615Z,20.97
2022-10-22T14:15:59.149Z,15.00
2022-10-22T14:18:31.622Z,17.93
2022-10-22T14:21:04.773Z,16.93
2022-10-22T14:23:34.463Z,13.47
2022-10-22T14:26:03.284Z,17.07
2022-10-22T14:28:40.977Z,24.17
2022-10-22T14:31:14.543Z,12.40
2022-10-22T14:33:42.809Z,16.47
2022-10-22T14:36:14.347Z,13.70
2022-10-22T14:38:42.818Z,12.47
2022-10-22T14:41:21.277Z,16.20
2022-10-22T14:43:51.988Z,13.93
2022-10-22T14:46:20.509Z,14.63
2022-10-22T14:48:49.229Z,13.47
2022-10-22T14:51:19.158Z,14.93
2022-10-22T14:53:47.944Z,15.70
2022-10-22T14:56:18.553Z,19.50
2022-10-22T14:58:46.984Z,18.87
2022-10-22T15:01:16.796Z,19.17
2022-10-22T15:03:44.964Z,14.77
2022-10-22T15:06:13.152Z,27.13
2022-10-22T15:08:41.303Z,11.73
2022-10-22T15:11:12.845Z,9.10
2022-10-22T15:13:42.111Z,17.03
2022-10-22T15:16:11.904Z,11.23
2022-10-22T15:18:41.501Z,20.90
2022-10-22T15:21:17.630Z,11.63
2022-10-22T15:23:45.849Z,14.00
2022-10-22T15:26:14.684Z,17.33
2022-10-22T15:28:43.459Z,14.87
2022-10-22T15:31:13.833Z,10.03
2022-10-22T15:33:44.355Z,9.50
2022-10-22T15:36:14.795Z,17.13
2022-10-22T15:38:43.338Z,23.53
2022-10-22T15:41:13.499Z,10.57
2022-10-22T15:43:42.044Z,13.37
2022-10-22T15:46:13.517Z,17.97
2022-10-22T15:48:43.471Z,36.90
2022-10-22T15:51:13.974Z,41.17
2022-10-22T15:53:43.146Z,25.83
2022-10-22T15:56:12.650Z,20.77
2022-10-22T15:58:40.770Z,23.10
2022-10-22T16:01:10.931Z,26.43
2022-10-22T16:03:39.149Z,23.50
2022-10-22T16:06:10.143Z,20.40
2022-10-22T16:08:38.620Z,22.60
2022-10-22T16:11:07.103Z,15.50
2022-10-22T16:13:37.022Z,13.17
2022-10-22T16:16:07.908Z,31.67
2022-10-22T16:18:36.331Z,27.10
2022-10-22T16:21:04.932Z,22.00
2022-10-22T16:23:34.667Z,26.00
2022-10-22T16:26:03.132Z,22.87
2022-10-22T16:28:31.342Z,19.90
2022-10-22T16:31:04.188Z,43.20
2022-10-22T16:33:41.399Z,21.93
2022-10-22T16:36:13.808Z,16.87
2022-10-22T16:38:43.266Z,22.70
2022-10-22T16:41:14.040Z,23.37
2022-10-22T16:43:42.552Z,24.77
2022-10-22T16:46:11.007Z,10.60
2022-10-22T16:48:42.016Z,18.37
2022-10-22T16:51:11.829Z,11.80
2022-10-22T16:53:40.001Z,21.00
2022-10-22T16:56:11.034Z,22.57
2022-10-22T16:58:39.841Z,24.00
2022-10-22T17:01:08.814Z,15.33
2022-10-22T17:03:37.865Z,19.97
2022-10-22T17:06:06.592Z,9.57
2022-10-22T17:08:36.556Z,9.93
2022-10-22T17:11:08.531Z,11.77
2022-10-22T17:13:38.932Z,18.97
2022-10-22T17:16:09.401Z,12.20
2022-10-22T17:18:40.318Z,24.53
2022-10-22T17:21:09.888Z,27.77
2022-10-22T17:23:38.478Z,15.70
2022-10-22T17:26:08.412Z,17.83
2022-10-22T17:28:38.165Z,14.07
2022-10-22T17:31:07.904Z,12.43
2022-10-22T17:33:37.229Z,16.90
2022-10-22T17:36:09.157Z,15.60
2022-10-22T17:38:37.567Z,12.70
2022-10-22T17:41:07.470Z,15.33
2022-10-22T17:43:37.984Z,15.87
2022-10-22T17:46:08.247Z,13.80
2022-10-22T17:48:36.513Z,16.43
2022-10-22T17:51:07.682Z,14.00
2022-10-22T17:53:35.946Z,19.20
2022-10-22T17:56:07.091Z,20.50
2022-10-22T17:58:35.618Z,8.73
2022-10-22T18:01:06.058Z,26.33
2022-10-22T18:03:34.779Z,25.73
2022-10-22T18:06:10.149Z,20.77
2022-10-22T18:08:38.555Z,17.43
2022-10-22T18:11:08.061Z,15.00
2022-10-22T18:13:36.401Z,20.03
2022-10-22T18:16:06.726Z,12.00
2022-10-22T18:18:35.023Z,11.70
2022-10-22T18:21:03.890Z,10.40
2022-10-22T18:23:33.275Z,11.47
2022-10-22T18:26:01.886Z,12.13
2022-10-22T18:28:30.235Z,13.47
2022-10-22T18:30:58.479Z,7.83
2022-10-22T18:33:27.994Z,8.37
2022-10-22T18:35:56.876Z,11.00
2022-10-22T18:38:25.009Z,10.70
2022-10-22T18:40:53.183Z,6.13
2022-10-22T18:43:21.894Z,6.33
2022-10-22T18:45:50.179Z,10.50
2022-10-22T18:48:22.770Z,5.63
2022-10-22T18:51:01.804Z,24.30
2022-10-22T18:53:30.439Z,14.77
2022-10-22T18:55:58.891Z,10.50
2022-10-22T18:58:27.365Z,9.43
2022-10-22T19:00:55.808Z,9.83
2022-10-22T19:03:23.954Z,12.60
2022-10-22T19:05:56.375Z,6.27
2022-10-22T19:08:25.792Z,12.20
2022-10-22T19:10:54.002Z,11.00
2022-10-22T19:13:23.361Z,11.80
2022-10-22T19:15:56.364Z,9.27
2022-10-22T19:18:28.041Z,11.80
2022-10-22T19:21:04.143Z,9.47
2022-10-22T19:23:32.906Z,8.10
2022-10-22T19:26:03.216Z,14.90
2022-10-22T19:28:34.810Z,8.80
2022-10-22T19:31:05.835Z,16.60
2022-10-22T19:33:35.370Z,15.03
2022-10-22T19:36:07.050Z,17.77
2022-10-22T19:38:35.666Z,17.10
2022-10-22T19:41:03.890Z,13.17
2022-10-22T19:43:32.149Z,12.70
2022-10-22T19:46:00.524Z,17.37
2022-10-22T19:48:29.950Z,16.70
2022-10-22T19:51:03.072Z,16.97
2022-10-22T19:53:34.014Z,15.00
2022-10-22T19:56:02.766Z,16.13
2022-10-22T19:58:31.187Z,15.53
2022-10-22T20:01:04.973Z,13.23
2022-10-22T20:03:34.031Z,22.13
2022-10-22T20:06:02.216Z,13.20
2022-10-22T20:08:32.261Z,13.83
2022-10-22T20:11:00.611Z,11.70
2022-10-22T20:13:29.293Z,16.33
2022-10-22T20:15:58.009Z,14.77
2022-10-22T20:18:26.173Z,14.17
2022-10-22T20:20:54.403Z,16.43
2022-10-22T20:23:22.746Z,14.50
2022-10-22T20:25:52.575Z,13.47
2022-10-22T20:28:21.008Z,20.70
2022-10-22T20:30:49.154Z,13.30
2022-10-22T20:33:17.605Z,16.37
2022-10-22T20:35:46.205Z,16.53
2022-10-22T20:38:16.096Z,15.67
2022-10-22T20:40:44.305Z,18.53
2022-10-22T20:43:13.941Z,18.20
2022-10-22T20:45:42.074Z,15.23
2022-10-22T20:48:10.634Z,17.33
2022-10-22T20:50:39.008Z,16.63
2022-10-22T20:53:07.230Z,15.90
2022-10-22T20:55:35.648Z,17.13
2022-10-22T20:58:03.879Z,16.57
2022-10-22T21:00:36.101Z,15.40
2022-10-22T21:03:04.504Z,18.83
2022-10-22T21:05:32.649Z,18.13
2022-10-22T21:08:02.101Z,20.27
2022-10-22T21:10:33.116Z,17.70
2022-10-22T21:13:01.348Z,18.27
2022-10-22T21:15:29.567Z,17.70
2022-10-22T21:17:59.066Z,19.50
2022-10-22T21:20:27.262Z,22.70
2022-10-22T21:22:55.857Z,23.20
2022-10-22T21:25:23.977Z,21.70
2022-10-22T21:27:52.372Z,15.93
2022-10-22T21:30:20.493Z,16.10
2022-10-22T21:32:48.641Z,21.27
2022-10-22T21:35:18.457Z,24.00
2022-10-22T21:37:46.597Z,15.00
2022-10-22T21:40:15.344Z,18.03
2022-10-22T21:42:43.624Z,15.63
2022-10-22T21:45:14.827Z,18.63
2022-10-22T21:47:44.056Z,14.30
2022-10-22T21:50:12.543Z,13.97
2022-10-22T21:52:42.057Z,13.00
2022-10-22T21:55:10.511Z,11.40
2022-10-22T21:57:38.754Z,14.87
2022-10-22T22:00:08.462Z,15.07
2022-10-22T22:02:36.583Z,14.33
2022-10-22T22:05:05.012Z,20.27
2022-10-22T22:07:33.552Z,23.33
2022-10-22T22:10:02.995Z,15.13
2022-10-22T22:12:31.332Z,13.77
2022-10-22T22:14:59.445Z,12.13
2022-10-22T22:17:27.581Z,11.63
2022-10-22T22:19:56.509Z,12.73
2022-10-22T22:22:24.973Z,10.53
2022-10-22T22:24:53.091Z,10.90
2022-10-22T22:27:22.646Z,10.03
2022-10-22T22:29:50.789Z,13.73
2022-10-22T22:32:18.966Z,10.70
2022-10-22T22:34:47.157Z,12.93
2022-10-22T22:37:15.342Z,12.27
2022-10-22T22:39:43.448Z,13.33
2022-10-22T22:42:11.577Z,11.10
2022-10-22T22:44:41.064Z,12.23
2022-10-22T22:47:09.172Z,9.87
2022-10-22T22:49:37.320Z,12.77
2022-10-22T22:52:05.835Z,11.03
2022-10-22T22:54:34.266Z,14.40
2022-10-22T22:57:02.398Z,11.20
2022-10-22T22:59:30.652Z,10.90
2022-10-22T23:02:00.220Z,10.80
2022-10-22T23:04:30.166Z,11.83
2022-10-22T23:06:58.299Z,10.40
2022-10-22T23:09:26.529Z,10.90
2022-10-22T23:11:54.716Z,10.37
2022-10-22T23:14:25.486Z,9.70
2022-10-22T23:16:54.484Z,19.07
2022-10-22T23:19:27.284Z,11.40
2022-10-22T23:21:57.661Z,10.70
2022-10-22T23:24:27.332Z,9.23
2022-10-22T23:26:57.309Z,14.13
2022-10-22T23:29:27.483Z,11.03
2022-10-22T23:31:56.573Z,12.07
2022-10-22T23:34:26.297Z,11.27
2022-10-22T23:36:56.115Z,10.83
2022-10-22T23:39:27.358Z,12.33
2022-10-22T23:41:56.569Z,10.33
2022-10-22T23:44:26.040Z,10.40
2022-10-22T23:46:55.177Z,15.20
2022-10-22T23:49:23.481Z,10.10
2022-10-22T23:51:52.948Z,12.57
2022-10-22T23:54:21.210Z,13.40
2022-10-22T23:56:49.439Z,13.77
2022-10-22T23:59:17.617Z,13.00
